createdAt,value
2022-08-21T00:00:44.389Z,11.94
2022-08-21T00:01:47.416Z,11.57
2022-08-21T00:02:50.452Z,10.35
2022-08-21T00:03:53.395Z,9.68
2022-08-21T00:04:57.667Z,12.14
2022-08-21T00:06:00.785Z,8.73
2022-08-21T00:07:03.769Z,11.32
2022-08-21T00:08:06.641Z,14.12
2022-08-21T00:09:09.719Z,12.65
2022-08-21T00:10:12.902Z,9.98
2022-08-21T00:11:15.978Z,11.67
2022-08-21T00:12:19.062Z,12.43
2022-08-21T00:13:22.135Z,12.43
2022-08-21T00:14:25.320Z,12.25
2022-08-21T00:15:28.302Z,11.78
2022-08-21T00:16:31.377Z,14.61
2022-08-21T00:17:34.360Z,10.81
2022-08-21T00:18:37.123Z,9.24
2022-08-21T00:19:39.901Z,11.92
2022-08-21T00:20:42.569Z,9.52
2022-08-21T00:21:45.550Z,10.81
2022-08-21T00:22:48.214Z,11.42
2022-08-21T00:23:54.072Z,11.06
2022-08-21T00:24:56.831Z,9.40
2022-08-21T00:25:59.703Z,9.95
2022-08-21T00:27:02.579Z,10.47
2022-08-21T00:28:05.465Z,10.42
2022-08-21T00:29:08.227Z,8.78
2022-08-21T00:30:11.102Z,12.26
2022-08-21T00:31:15.412Z,11.58
2022-08-21T00:32:18.388Z,12.63
2022-08-21T00:33:21.267Z,10.62
2022-08-21T00:34:24.036Z,11.73
2022-08-21T00:35:29.880Z,9.25
2022-08-21T00:36:32.855Z,12.67
2022-08-21T00:37:35.726Z,13.81
2022-08-21T00:38:41.482Z,11.29
2022-08-21T00:39:44.530Z,9.84
2022-08-21T00:40:47.420Z,8.80
2022-08-21T00:41:59.208Z,10.25
2022-08-21T00:43:02.561Z,10.66
2022-08-21T00:44:05.879Z,12.07
2022-08-21T00:45:08.964Z,12.07
2022-08-21T00:46:12.242Z,8.39
2022-08-21T00:47:15.527Z,11.25
2022-08-21T00:48:18.502Z,11.34
2022-08-21T00:49:21.478Z,10.58
2022-08-21T00:50:24.558Z,11.73
2022-08-21T00:51:27.543Z,11.50
2022-08-21T00:52:30.616Z,9.96
2022-08-21T00:53:33.591Z,11.19
2022-08-21T00:54:39.341Z,11.46
2022-08-21T00:55:43.850Z,11.90
2022-08-21T00:56:46.825Z,8.92
2022-08-21T00:57:50.376Z,11.36
2022-08-21T00:58:54.915Z,11.13
2022-08-21T00:59:58.113Z,10.01
2022-08-21T01:01:01.315Z,10.85
2022-08-21T01:02:05.607Z,12.51
2022-08-21T01:03:09.008Z,9.48
2022-08-21T01:04:12.068Z,7.89
2022-08-21T01:05:15.657Z,8.23
2022-08-21T01:06:18.737Z,10.26
2022-08-21T01:07:21.922Z,10.39
2022-08-21T01:08:26.434Z,8.42
2022-08-21T01:09:29.616Z,6.99
2022-08-21T01:10:32.493Z,11.62
2022-08-21T01:11:36.901Z,10.94
2022-08-21T01:12:39.977Z,8.09
2022-08-21T01:13:42.854Z,6.94
2022-08-21T01:14:45.633Z,7.79
2022-08-21T01:15:48.304Z,9.82
2022-08-21T01:16:51.171Z,8.92
2022-08-21T01:17:54.254Z,7.78
2022-08-21T01:18:57.123Z,9.47
2022-08-21T01:20:00.141Z,13.52
2022-08-21T01:21:02.985Z,7.18
2022-08-21T01:22:05.855Z,9.73
2022-08-21T01:23:08.837Z,7.98
2022-08-21T01:24:11.808Z,7.36
2022-08-21T01:25:14.693Z,7.56
2022-08-21T01:26:20.214Z,8.70
2022-08-21T01:27:23.201Z,8.04
2022-08-21T01:28:25.967Z,8.95
2022-08-21T01:29:28.842Z,7.25
2022-08-21T01:30:32.064Z,7.98
2022-08-21T01:31:35.101Z,6.43
2022-08-21T01:32:40.638Z,6.68
2022-08-21T01:33:46.409Z,5.70
2022-08-21T01:34:49.051Z,6.43
2022-08-21T01:35:52.132Z,6.32
2022-08-21T01:36:54.811Z,5.95
2022-08-21T01:37:57.674Z,5.33
2022-08-21T01:39:00.555Z,5.50
2022-08-21T01:40:03.377Z,6.21
2022-08-21T01:41:06.404Z,5.48
2022-08-21T01:42:12.348Z,4.85
2022-08-21T01:43:15.429Z,4.49
2022-08-21T01:44:18.609Z,4.08
2022-08-21T01:45:21.793Z,5.00
2022-08-21T01:46:24.770Z,5.29
2022-08-21T01:47:28.053Z,5.00
2022-08-21T01:48:31.031Z,4.29
2022-08-21T01:49:36.671Z,4.98
2022-08-21T01:50:39.646Z,4.44
2022-08-21T01:51:42.725Z,5.22
2022-08-21T01:52:48.676Z,4.50
2022-08-21T01:53:57.586Z,6.26
2022-08-21T01:55:00.461Z,6.15
2022-08-21T01:56:03.233Z,5.70
2022-08-21T01:57:06.313Z,5.67
2022-08-21T01:58:09.295Z,5.48
2022-08-21T01:59:12.271Z,6.45
2022-08-21T02:00:15.343Z,6.62
2022-08-21T02:01:18.853Z,6.79
2022-08-21T02:02:21.710Z,5.90
2022-08-21T02:03:31.219Z,4.80
2022-08-21T02:04:29.203Z,4.53
2022-08-21T02:05:32.094Z,5.03
2022-08-21T02:06:35.461Z,6.56
2022-08-21T02:07:38.436Z,5.75
2022-08-21T02:08:43.983Z,5.81
2022-08-21T02:09:50.056Z,4.95
2022-08-21T02:10:53.892Z,5.18
2022-08-21T02:11:59.559Z,4.70
2022-08-21T02:13:02.340Z,6.04
2022-08-21T02:14:05.007Z,5.76
2022-08-21T02:15:07.989Z,5.35
2022-08-21T02:16:11.064Z,5.15
2022-08-21T02:18:33.093Z,5.93
2022-08-21T02:19:40.266Z,4.45
2022-08-21T02:20:40.684Z,4.85
2022-08-21T02:21:43.664Z,4.88
2022-08-21T02:22:46.544Z,5.68
2022-08-21T02:23:49.413Z,4.96
2022-08-21T02:24:55.123Z,4.87
2022-08-21T02:25:56.491Z,5.02
2022-08-21T02:26:59.364Z,5.79
2022-08-21T02:28:02.156Z,5.72
2022-08-21T02:29:05.115Z,5.12
2022-08-21T02:30:08.195Z,6.42
2022-08-21T02:31:11.274Z,4.42
2022-08-21T02:32:15.798Z,2.78
2022-08-21T02:33:19.070Z,3.69
2022-08-21T02:34:21.947Z,4.42
2022-08-21T02:35:26.455Z,5.54
2022-08-21T02:36:29.535Z,3.44
2022-08-21T02:37:32.512Z,4.67
2022-08-21T02:38:35.704Z,5.18
2022-08-21T02:39:39.052Z,4.39
2022-08-21T02:40:43.768Z,3.93
2022-08-21T02:41:46.682Z,4.66
2022-08-21T02:42:49.344Z,4.69
2022-08-21T02:43:52.631Z,4.86
2022-08-21T02:44:58.472Z,5.51
2022-08-21T02:46:01.450Z,5.04
2022-08-21T02:47:04.223Z,6.14
2022-08-21T02:48:06.903Z,4.65
2022-08-21T02:49:10.077Z,4.45
2022-08-21T02:50:13.054Z,4.92
2022-08-21T02:51:16.026Z,3.93
2022-08-21T02:52:19.106Z,4.35
2022-08-21T02:53:22.087Z,4.62
2022-08-21T02:54:25.188Z,2.98
2022-08-21T02:55:28.142Z,4.26
2022-08-21T02:56:31.734Z,6.88
2022-08-21T02:57:34.737Z,4.80
2022-08-21T02:58:37.694Z,4.92
2022-08-21T02:59:40.776Z,3.65
2022-08-21T03:00:43.639Z,3.02
2022-08-21T03:01:46.864Z,3.19
2022-08-21T03:02:49.599Z,4.81
2022-08-21T03:03:52.675Z,4.62
2022-08-21T03:04:55.651Z,5.12
2022-08-21T03:05:58.425Z,4.28
2022-08-21T03:07:01.306Z,5.53
2022-08-21T03:08:03.967Z,4.84
2022-08-21T03:09:06.639Z,5.33
2022-08-21T03:10:22.006Z,2.94
2022-08-21T03:11:25.087Z,3.54
2022-08-21T03:12:29.949Z,3.38
2022-08-21T03:13:32.779Z,3.83
2022-08-21T03:14:35.753Z,4.91
2022-08-21T03:15:38.732Z,4.08
2022-08-21T03:16:41.607Z,4.79
2022-08-21T03:17:44.483Z,5.51
2022-08-21T03:18:47.156Z,4.58
2022-08-21T03:19:49.924Z,4.18
2022-08-21T03:20:54.236Z,4.69
2022-08-21T03:21:57.006Z,6.22
2022-08-21T03:22:59.995Z,4.11
2022-08-21T03:24:04.246Z,4.57
2022-08-21T03:25:07.369Z,4.29
2022-08-21T03:26:11.679Z,6.66
2022-08-21T03:27:14.656Z,4.24
2022-08-21T03:28:17.629Z,4.99
2022-08-21T03:29:20.722Z,3.75
2022-08-21T03:30:23.802Z,4.78
2022-08-21T03:31:27.073Z,3.67
2022-08-21T03:32:30.155Z,3.90
2022-08-21T03:33:33.231Z,2.74
2022-08-21T03:34:36.831Z,4.03
2022-08-21T03:35:39.698Z,3.66
2022-08-21T03:36:43.084Z,3.12
2022-08-21T03:37:45.963Z,3.07
2022-08-21T03:38:48.730Z,2.54
2022-08-21T03:39:51.680Z,2.34
2022-08-21T03:40:54.381Z,3.19
2022-08-21T03:41:57.255Z,2.92
2022-08-21T03:43:00.037Z,3.88
2022-08-21T03:44:02.899Z,2.77
2022-08-21T03:45:05.679Z,2.28
2022-08-21T03:46:08.858Z,2.01
2022-08-21T03:47:12.141Z,3.61
2022-08-21T03:48:15.114Z,3.44
2022-08-21T03:49:17.994Z,4.92
2022-08-21T03:50:21.076Z,3.49
2022-08-21T03:51:24.258Z,2.38
2022-08-21T03:52:27.536Z,2.75
2022-08-21T03:53:30.513Z,2.22
2022-08-21T03:54:33.385Z,3.72
2022-08-21T03:55:36.368Z,4.32
2022-08-21T03:56:39.343Z,2.95
2022-08-21T03:57:42.427Z,4.27
2022-08-21T03:58:45.298Z,5.35
2022-08-21T03:59:48.170Z,6.28
2022-08-21T04:00:50.844Z,4.83
2022-08-21T04:01:53.794Z,5.20
2022-08-21T04:02:59.829Z,6.27
2022-08-21T04:04:02.945Z,7.65
2022-08-21T04:05:05.819Z,7.98
2022-08-21T04:06:08.693Z,7.48
2022-08-21T04:07:12.489Z,9.61
2022-08-21T04:08:15.875Z,9.38
2022-08-21T04:09:18.957Z,9.01
2022-08-21T04:10:21.939Z,8.39
2022-08-21T04:11:25.321Z,6.52
2022-08-21T04:12:28.302Z,8.56
2022-08-21T04:13:31.481Z,9.65
2022-08-21T04:14:34.457Z,9.66
2022-08-21T04:15:37.442Z,10.30
2022-08-21T04:16:40.411Z,9.79
2022-08-21T04:17:46.258Z,8.65
2022-08-21T04:18:49.031Z,8.68
2022-08-21T04:19:54.017Z,6.80
2022-08-21T04:20:56.312Z,7.46
2022-08-21T04:21:59.085Z,8.65
2022-08-21T04:23:01.755Z,9.88
2022-08-21T04:24:07.596Z,7.05
2022-08-21T04:25:10.473Z,6.01
2022-08-21T04:26:13.243Z,7.52
2022-08-21T04:27:19.085Z,5.96
2022-08-21T04:28:23.189Z,8.04
2022-08-21T04:29:26.582Z,6.98
2022-08-21T04:30:29.369Z,7.26
2022-08-21T04:31:32.124Z,5.47
2022-08-21T04:32:34.793Z,6.66
2022-08-21T04:33:37.667Z,7.40
2022-08-21T04:34:40.852Z,7.67
2022-08-21T04:35:43.930Z,7.32
2022-08-21T04:36:46.803Z,8.77
2022-08-21T04:37:49.684Z,5.86
2022-08-21T04:38:58.083Z,8.20
2022-08-21T04:40:01.240Z,9.05
2022-08-21T04:41:04.136Z,8.32
2022-08-21T04:42:06.806Z,6.81
2022-08-21T04:43:09.887Z,9.08
2022-08-21T04:44:15.529Z,8.27
2022-08-21T04:45:18.814Z,6.23
2022-08-21T04:46:21.785Z,7.81
2022-08-21T04:47:24.660Z,6.56
2022-08-21T04:48:29.182Z,8.78
2022-08-21T04:49:32.369Z,6.71
2022-08-21T04:50:35.649Z,6.57
2022-08-21T04:51:38.513Z,7.79
2022-08-21T04:52:41.497Z,8.29
2022-08-21T04:53:44.367Z,8.06
2022-08-21T04:54:47.039Z,7.78
2022-08-21T04:55:50.421Z,7.40
2022-08-21T04:56:53.196Z,8.69
2022-08-21T04:59:14.927Z,8.20
2022-08-21T05:00:18.309Z,7.94
2022-08-21T05:01:21.449Z,8.58
2022-08-21T05:02:24.366Z,12.32
2022-08-21T05:03:27.349Z,8.06
2022-08-21T05:04:30.229Z,6.78
2022-08-21T05:05:33.087Z,7.00
2022-08-21T05:06:36.383Z,7.85
2022-08-21T05:07:42.052Z,9.13
2022-08-21T05:08:43.973Z,9.09
2022-08-21T05:09:46.846Z,10.95
2022-08-21T05:10:49.721Z,7.32
2022-08-21T05:11:53.003Z,7.30
2022-08-21T05:12:55.775Z,11.80
2022-08-21T05:13:58.647Z,8.53
2022-08-21T05:15:01.526Z,8.76
2022-08-21T05:16:04.301Z,7.18
2022-08-21T05:17:08.814Z,7.23
2022-08-21T05:18:11.581Z,7.13
2022-08-21T05:19:14.664Z,7.23
2022-08-21T05:20:17.634Z,10.16
2022-08-21T05:21:20.513Z,8.32
2022-08-21T05:22:23.489Z,9.37
2022-08-21T05:23:26.366Z,8.27
2022-08-21T05:24:29.135Z,7.08
2022-08-21T05:25:32.316Z,8.41
2022-08-21T05:26:46.237Z,7.14
2022-08-21T05:27:44.517Z,7.66
2022-08-21T05:28:47.184Z,7.95
2022-08-21T05:29:50.169Z,8.13
2022-08-21T05:30:53.242Z,7.20
2022-08-21T05:31:56.322Z,7.28
2022-08-21T05:32:59.413Z,9.27
2022-08-21T05:34:02.382Z,6.88
2022-08-21T05:35:05.978Z,7.07
2022-08-21T05:36:09.055Z,9.25
2022-08-21T05:37:11.924Z,7.75
2022-08-21T05:38:18.195Z,8.05
2022-08-21T05:39:19.722Z,7.19
2022-08-21T05:40:23.460Z,5.12
2022-08-21T05:41:26.597Z,5.88
2022-08-21T05:42:29.679Z,6.58
2022-08-21T05:43:32.772Z,10.55
2022-08-21T05:44:35.470Z,11.43
2022-08-21T05:45:42.707Z,8.72
2022-08-21T05:46:43.631Z,7.40
2022-08-21T05:47:46.509Z,8.06
2022-08-21T05:48:49.597Z,6.42
2022-08-21T05:49:52.461Z,7.73
2022-08-21T05:50:55.132Z,9.59
2022-08-21T05:51:57.813Z,6.96
2022-08-21T05:53:00.680Z,8.53
2022-08-21T05:54:04.984Z,9.17
2022-08-21T05:55:07.655Z,8.66
2022-08-21T05:56:13.399Z,7.12
2022-08-21T05:57:16.069Z,6.63
2022-08-21T05:58:18.836Z,20.02
2022-08-21T05:59:21.917Z,8.89
2022-08-21T06:00:24.792Z,8.70
2022-08-21T06:01:27.569Z,5.68
2022-08-21T06:02:33.311Z,6.46
2022-08-21T06:03:35.971Z,7.10
2022-08-21T06:04:38.949Z,7.03
2022-08-21T06:06:00.076Z,7.32
2022-08-21T06:07:02.728Z,6.86
2022-08-21T06:08:05.399Z,6.73
2022-08-21T06:09:08.063Z,7.32
2022-08-21T06:10:10.944Z,7.15
2022-08-21T06:11:13.609Z,6.85
2022-08-21T06:12:16.279Z,5.55
2022-08-21T06:13:18.946Z,8.50
2022-08-21T06:14:21.819Z,7.49
2022-08-21T06:15:24.700Z,8.78
2022-08-21T06:16:27.377Z,8.96
2022-08-21T06:17:30.041Z,6.56
2022-08-21T06:18:32.812Z,7.35
2022-08-21T06:19:35.584Z,7.14
2022-08-21T06:20:38.459Z,7.83
2022-08-21T06:21:41.124Z,8.59
2022-08-21T06:22:43.796Z,8.25
2022-08-21T06:23:46.465Z,7.32
2022-08-21T06:24:49.249Z,7.37
2022-08-21T06:25:52.110Z,6.35
2022-08-21T06:26:56.418Z,9.27
2022-08-21T06:27:59.400Z,8.07
2022-08-21T06:29:02.167Z,7.58
2022-08-21T06:30:04.946Z,7.45
2022-08-21T06:31:07.816Z,7.94
2022-08-21T06:32:10.383Z,6.38
2022-08-21T06:33:13.358Z,6.22
2022-08-21T06:34:17.675Z,7.63
2022-08-21T06:35:20.549Z,10.78
2022-08-21T06:36:23.628Z,10.60
2022-08-21T06:37:27.419Z,6.53
2022-08-21T06:38:32.461Z,8.68
2022-08-21T06:39:35.554Z,9.07
2022-08-21T06:40:43.739Z,9.40
2022-08-21T06:41:44.461Z,10.44
2022-08-21T06:42:47.930Z,6.60
2022-08-21T06:43:50.706Z,11.41
2022-08-21T06:44:53.488Z,7.44
2022-08-21T06:45:56.148Z,7.88
2022-08-21T06:46:58.925Z,7.62
2022-08-21T06:48:01.799Z,8.03
2022-08-21T06:49:04.575Z,8.90
2022-08-21T06:50:08.981Z,7.97
2022-08-21T06:51:11.650Z,12.02
2022-08-21T06:52:14.532Z,8.99
2022-08-21T06:53:17.304Z,8.28
2022-08-21T06:54:20.068Z,11.68
2022-08-21T06:55:25.359Z,7.42
2022-08-21T06:56:27.146Z,7.87
2022-08-21T06:57:30.032Z,9.28
2022-08-21T06:58:32.694Z,10.66
2022-08-21T06:59:35.369Z,8.23
2022-08-21T07:00:38.068Z,6.49
2022-08-21T07:01:40.877Z,7.64
2022-08-21T07:02:43.889Z,8.30
2022-08-21T07:03:46.661Z,8.21
2022-08-21T07:04:49.458Z,10.55
2022-08-21T07:05:52.301Z,6.93
2022-08-21T07:06:55.084Z,7.88
2022-08-21T07:07:58.053Z,7.60
2022-08-21T07:09:00.829Z,10.01
2022-08-21T07:10:03.496Z,8.42
2022-08-21T07:11:06.168Z,6.74
2022-08-21T07:12:08.943Z,8.43
2022-08-21T07:13:11.915Z,6.76
2022-08-21T07:14:20.411Z,6.82
2022-08-21T07:15:19.301Z,8.29
2022-08-21T07:16:22.280Z,5.46
2022-08-21T07:17:25.252Z,7.23
2022-08-21T07:18:28.541Z,6.08
2022-08-21T07:19:31.525Z,7.26
2022-08-21T07:20:34.393Z,6.58
2022-08-21T07:21:37.471Z,8.78
2022-08-21T07:22:40.346Z,6.98
2022-08-21T07:23:43.528Z,6.63
2022-08-21T07:24:46.505Z,7.88
2022-08-21T07:25:49.378Z,7.74
2022-08-21T07:26:52.151Z,7.46
2022-08-21T07:27:55.026Z,7.58
2022-08-21T07:28:58.108Z,7.74
2022-08-21T07:30:00.774Z,6.45
2022-08-21T07:31:03.654Z,7.29
2022-08-21T07:32:06.425Z,6.42
2022-08-21T07:33:09.093Z,5.31
2022-08-21T07:34:12.281Z,7.60
2022-08-21T07:35:15.250Z,7.92
2022-08-21T07:36:18.432Z,6.61
2022-08-21T07:37:21.518Z,8.43
2022-08-21T07:38:24.385Z,6.75
2022-08-21T07:39:27.584Z,5.82
2022-08-21T07:40:30.665Z,6.88
2022-08-21T07:41:33.737Z,6.55
2022-08-21T07:42:36.809Z,7.45
2022-08-21T07:43:46.022Z,8.20
2022-08-21T07:44:44.507Z,6.88
2022-08-21T07:45:47.584Z,7.61
2022-08-21T07:46:50.254Z,5.92
2022-08-21T07:47:57.151Z,7.64
2022-08-21T07:48:57.331Z,7.06
2022-08-21T07:50:00.209Z,8.90
2022-08-21T07:51:02.977Z,7.54
2022-08-21T07:52:05.849Z,5.20
2022-08-21T07:53:08.625Z,8.07
2022-08-21T07:54:11.494Z,9.00
2022-08-21T07:55:16.117Z,9.43
2022-08-21T07:56:18.887Z,8.08
2022-08-21T07:57:21.873Z,9.01
2022-08-21T07:58:25.048Z,8.91
2022-08-21T07:59:28.227Z,8.26
2022-08-21T08:00:31.210Z,10.19
2022-08-21T08:01:34.205Z,9.91
2022-08-21T08:02:37.156Z,9.35
2022-08-21T08:03:39.928Z,8.95
2022-08-21T08:04:50.647Z,8.25
2022-08-21T08:05:47.111Z,9.19
2022-08-21T08:06:50.291Z,9.58
2022-08-21T08:07:53.165Z,9.42
2022-08-21T08:08:56.148Z,9.32
2022-08-21T08:09:58.923Z,7.15
2022-08-21T08:11:01.796Z,8.44
2022-08-21T08:12:04.567Z,8.08
2022-08-21T08:13:10.564Z,9.32
2022-08-21T08:14:11.953Z,8.11
2022-08-21T08:15:14.933Z,10.57
2022-08-21T08:16:17.911Z,12.28
2022-08-21T08:17:20.989Z,10.90
2022-08-21T08:18:23.657Z,8.65
2022-08-21T08:19:26.528Z,8.85
2022-08-21T08:20:29.711Z,9.74
2022-08-21T08:21:32.816Z,11.37
2022-08-21T08:22:37.197Z,9.17
2022-08-21T08:23:40.176Z,9.87
2022-08-21T08:24:43.566Z,8.70
2022-08-21T08:25:46.434Z,10.18
2022-08-21T08:26:53.993Z,11.92
2022-08-21T08:27:54.034Z,9.59
2022-08-21T08:28:56.911Z,8.77
2022-08-21T08:29:59.985Z,9.93
2022-08-21T08:31:02.871Z,11.05
2022-08-21T08:32:06.044Z,11.98
2022-08-21T08:33:08.815Z,11.78
2022-08-21T08:34:11.792Z,10.82
2022-08-21T08:35:16.098Z,9.56
2022-08-21T08:36:19.767Z,10.35
2022-08-21T08:37:23.556Z,11.92
2022-08-21T08:38:27.689Z,11.87
2022-08-21T08:39:30.769Z,10.48
2022-08-21T08:40:34.162Z,12.45
2022-08-21T08:41:37.238Z,12.30
2022-08-21T08:42:41.656Z,12.26
2022-08-21T08:43:44.951Z,12.58
2022-08-21T08:44:48.011Z,10.72
2022-08-21T08:45:51.002Z,10.36
2022-08-21T08:46:53.763Z,7.45
2022-08-21T08:47:58.582Z,11.24
2022-08-21T08:49:01.569Z,10.21
2022-08-21T08:50:05.864Z,9.53
2022-08-21T08:51:08.871Z,10.83
2022-08-21T08:52:11.715Z,10.73
2022-08-21T08:53:14.591Z,9.47
2022-08-21T08:54:17.668Z,9.18
2022-08-21T08:55:23.219Z,10.73
2022-08-21T08:56:25.362Z,9.72
2022-08-21T08:57:28.652Z,11.36
2022-08-21T08:58:31.726Z,10.06
2022-08-21T08:59:34.912Z,11.28
2022-08-21T09:00:37.791Z,11.36
2022-08-21T09:01:41.142Z,13.08
2022-08-21T09:02:44.152Z,8.65
2022-08-21T09:03:47.123Z,10.32
2022-08-21T09:04:50.316Z,10.53
2022-08-21T09:05:53.388Z,10.37
2022-08-21T09:06:56.159Z,9.60
2022-08-21T09:07:59.558Z,8.66
2022-08-21T09:09:02.729Z,9.18
2022-08-21T09:10:05.396Z,11.37
2022-08-21T09:11:08.583Z,10.89
2022-08-21T09:12:11.351Z,9.57
2022-08-21T09:13:14.433Z,9.82
2022-08-21T09:14:17.818Z,9.61
2022-08-21T09:15:20.799Z,12.32
2022-08-21T09:16:23.575Z,14.92
2022-08-21T09:17:26.441Z,10.70
2022-08-21T09:18:29.519Z,10.01
2022-08-21T09:19:32.508Z,8.55
2022-08-21T09:20:35.369Z,8.70
2022-08-21T09:21:38.454Z,11.62
2022-08-21T09:22:41.632Z,11.35
2022-08-21T09:23:44.509Z,9.89
2022-08-21T09:24:51.404Z,10.85
2022-08-21T09:25:52.406Z,11.14
2022-08-21T09:26:55.486Z,10.25
2022-08-21T09:27:58.358Z,11.61
2022-08-21T09:29:01.237Z,9.35
2022-08-21T09:30:04.551Z,9.36
2022-08-21T09:31:07.294Z,8.28
2022-08-21T09:32:10.173Z,10.42
2022-08-21T09:33:13.140Z,10.16
2022-08-21T09:34:16.427Z,7.78
2022-08-21T09:35:19.715Z,11.57
2022-08-21T09:36:22.587Z,8.88
2022-08-21T09:37:25.458Z,8.41
2022-08-21T09:38:28.339Z,9.97
2022-08-21T09:39:31.323Z,10.42
2022-08-21T09:40:34.717Z,8.77
2022-08-21T09:41:37.780Z,9.98
2022-08-21T09:42:40.758Z,9.26
2022-08-21T09:43:43.734Z,8.15
2022-08-21T09:44:46.710Z,9.22
2022-08-21T09:45:49.893Z,9.85
2022-08-21T09:46:52.455Z,9.99
2022-08-21T09:47:55.129Z,9.29
2022-08-21T09:48:57.802Z,9.51
2022-08-21T09:50:01.287Z,8.38
2022-08-21T09:51:04.265Z,9.45
2022-08-21T09:52:07.038Z,9.53
2022-08-21T09:53:09.703Z,11.38
2022-08-21T09:54:12.581Z,8.76
2022-08-21T09:55:15.358Z,7.46
2022-08-21T09:56:23.332Z,10.01
2022-08-21T09:57:27.248Z,11.05
2022-08-21T09:58:30.221Z,10.51
2022-08-21T09:59:36.856Z,10.43
2022-08-21T10:00:37.690Z,9.21
2022-08-21T10:01:40.792Z,8.68
2022-08-21T10:02:43.562Z,8.95
2022-08-21T10:03:46.440Z,7.51
2022-08-21T10:04:49.415Z,8.63
2022-08-21T10:05:52.287Z,10.32
2022-08-21T10:06:58.222Z,9.95
2022-08-21T10:07:59.577Z,8.34
2022-08-21T10:09:02.454Z,9.02
2022-08-21T10:10:05.331Z,8.77
2022-08-21T10:11:07.998Z,8.55
2022-08-21T10:12:11.451Z,8.62
2022-08-21T10:13:14.361Z,9.04
2022-08-21T10:14:17.028Z,9.49
2022-08-21T10:15:19.913Z,10.12
2022-08-21T10:16:22.576Z,9.57
2022-08-21T10:17:25.447Z,10.64
2022-08-21T10:18:28.114Z,9.92
2022-08-21T10:19:30.899Z,11.78
2022-08-21T10:20:33.559Z,10.52
2022-08-21T10:21:36.329Z,9.38
2022-08-21T10:22:39.210Z,9.48
2022-08-21T10:23:41.982Z,11.09
2022-08-21T10:24:44.750Z,11.97
2022-08-21T10:25:50.514Z,10.28
2022-08-21T10:26:51.726Z,10.69
2022-08-21T10:27:54.498Z,9.74
2022-08-21T10:28:57.376Z,9.15
2022-08-21T10:30:00.054Z,9.35
2022-08-21T10:31:02.714Z,9.45
2022-08-21T10:32:05.482Z,12.21
2022-08-21T10:33:09.796Z,9.85
2022-08-21T10:34:12.674Z,10.21
2022-08-21T10:35:15.340Z,9.72
2022-08-21T10:36:18.006Z,11.08
2022-08-21T10:37:20.903Z,11.08
2022-08-21T10:38:48.866Z,10.04
2022-08-21T10:39:35.257Z,12.90
2022-08-21T10:40:38.825Z,11.23
2022-08-21T10:41:41.700Z,10.82
2022-08-21T10:42:44.471Z,8.58
2022-08-21T10:43:47.247Z,7.03
2022-08-21T10:44:49.914Z,10.72
2022-08-21T10:45:52.583Z,9.32
2022-08-21T10:46:55.354Z,8.78
2022-08-21T10:47:58.432Z,9.55
2022-08-21T10:49:01.211Z,8.01
2022-08-21T10:50:03.883Z,8.02
2022-08-21T10:51:06.545Z,11.41
2022-08-21T10:52:09.224Z,9.02
2022-08-21T10:53:12.914Z,7.89
2022-08-21T10:54:19.150Z,8.81
2022-08-21T10:55:20.606Z,9.93
2022-08-21T10:56:23.584Z,8.76
2022-08-21T10:57:32.087Z,10.15
2022-08-21T10:58:31.075Z,8.24
2022-08-21T10:59:38.445Z,7.46
2022-08-21T11:00:38.911Z,9.04
2022-08-21T11:01:42.057Z,11.81
2022-08-21T11:02:46.171Z,9.79
2022-08-21T11:03:49.165Z,9.50
2022-08-21T11:04:51.956Z,8.34
2022-08-21T11:05:55.098Z,9.07
2022-08-21T11:07:00.826Z,8.49
2022-08-21T11:08:05.139Z,8.42
2022-08-21T11:09:10.978Z,8.82
2022-08-21T11:10:15.287Z,9.39
2022-08-21T11:11:22.140Z,7.81
2022-08-21T11:12:37.221Z,9.49
2022-08-21T11:13:40.097Z,10.23
2022-08-21T11:14:43.241Z,10.83
2022-08-21T11:15:53.627Z,8.07
2022-08-21T11:16:56.295Z,9.68
2022-08-21T11:17:59.273Z,6.11
2022-08-21T11:19:02.048Z,8.59
2022-08-21T11:20:04.717Z,7.72
2022-08-21T11:21:07.383Z,9.27
2022-08-21T11:22:10.055Z,6.68
2022-08-21T11:23:15.909Z,6.89
2022-08-21T11:24:18.672Z,7.16
2022-08-21T11:25:21.340Z,9.28
2022-08-21T11:26:24.110Z,10.79
2022-08-21T11:27:26.779Z,8.66
2022-08-21T11:28:35.489Z,6.36
2022-08-21T11:29:38.484Z,8.72
2022-08-21T11:30:41.346Z,8.15
2022-08-21T11:31:44.220Z,8.72
2022-08-21T11:32:47.093Z,7.86
2022-08-21T11:33:52.737Z,8.31
2022-08-21T11:34:58.684Z,7.36
2022-08-21T11:36:01.654Z,7.60
2022-08-21T11:37:07.295Z,6.78
2022-08-21T11:38:09.997Z,11.51
2022-08-21T11:39:12.738Z,6.68
2022-08-21T11:40:18.227Z,7.54
2022-08-21T11:41:23.615Z,8.37
2022-08-21T11:42:29.449Z,6.92
2022-08-21T11:43:32.321Z,5.66
2022-08-21T11:44:35.402Z,7.76
2022-08-21T11:45:38.380Z,7.51
2022-08-21T11:46:44.223Z,7.45
2022-08-21T11:47:50.890Z,7.54
2022-08-21T11:48:51.816Z,9.01
2022-08-21T11:49:56.333Z,9.23
2022-08-21T11:50:59.210Z,8.01
2022-08-21T11:52:04.946Z,11.93
2022-08-21T11:53:10.585Z,10.53
2022-08-21T11:54:13.591Z,8.43
2022-08-21T11:55:16.434Z,9.95
2022-08-21T11:56:20.947Z,8.81
2022-08-21T11:57:26.690Z,10.06
2022-08-21T11:58:29.773Z,7.42
2022-08-21T11:59:34.774Z,7.38
2022-08-21T12:00:37.266Z,7.81
2022-08-21T12:01:40.185Z,7.92
2022-08-21T12:02:45.878Z,8.28
2022-08-21T12:03:51.828Z,6.60
2022-08-21T12:04:54.603Z,8.99
2022-08-21T12:06:01.778Z,7.78
2022-08-21T12:07:07.310Z,8.19
2022-08-21T12:08:09.982Z,9.01
2022-08-21T12:09:14.083Z,9.44
2022-08-21T12:10:16.963Z,8.35
2022-08-21T12:11:22.904Z,10.24
2022-08-21T12:12:27.428Z,8.23
2022-08-21T12:13:40.095Z,10.04
2022-08-21T12:14:34.918Z,7.68
2022-08-21T12:15:37.783Z,8.41
2022-08-21T12:16:43.316Z,9.06
2022-08-21T12:17:46.193Z,9.83
2022-08-21T12:18:51.631Z,8.53
2022-08-21T12:19:57.169Z,8.64
2022-08-21T12:20:59.844Z,10.58
2022-08-21T12:22:02.709Z,7.19
2022-08-21T12:23:13.115Z,10.77
2022-08-21T12:24:16.060Z,9.66
2022-08-21T12:25:21.762Z,11.00
2022-08-21T12:26:23.527Z,5.94
2022-08-21T12:27:26.194Z,8.79
2022-08-21T12:28:29.072Z,9.88
2022-08-21T12:29:34.709Z,9.35
2022-08-21T12:30:37.591Z,8.97
2022-08-21T12:31:40.578Z,7.80
2022-08-21T12:32:43.435Z,6.21
2022-08-21T12:33:49.085Z,9.23
2022-08-21T12:34:51.949Z,9.31
2022-08-21T12:36:00.558Z,7.24
2022-08-21T12:37:03.230Z,6.03
2022-08-21T12:38:06.005Z,8.11
2022-08-21T12:39:08.774Z,6.61
2022-08-21T12:40:14.652Z,7.29
2022-08-21T12:41:20.461Z,8.64
2022-08-21T12:42:26.303Z,9.09
2022-08-21T12:43:29.079Z,10.78
2022-08-21T12:44:32.060Z,7.15
2022-08-21T12:45:40.766Z,7.92
2022-08-21T12:46:46.200Z,9.41
2022-08-21T12:47:48.971Z,7.51
2022-08-21T12:48:51.639Z,7.01
2022-08-21T12:49:54.417Z,7.32
2022-08-21T12:50:57.086Z,9.17
2022-08-21T12:52:03.132Z,7.79
2022-08-21T12:53:20.311Z,7.02
2022-08-21T12:54:12.876Z,7.78
2022-08-21T12:55:16.878Z,9.48
2022-08-21T12:56:19.851Z,7.66
2022-08-21T12:57:25.397Z,7.29
2022-08-21T12:58:31.237Z,7.85
2022-08-21T12:59:34.107Z,8.24
2022-08-21T13:00:36.992Z,10.68
2022-08-21T13:01:42.683Z,7.39
2022-08-21T13:02:45.397Z,8.74
2022-08-21T13:03:57.108Z,7.98
2022-08-21T13:04:55.550Z,8.56
2022-08-21T13:05:58.434Z,7.25
2022-08-21T13:07:01.092Z,9.94
2022-08-21T13:08:06.631Z,9.26
2022-08-21T13:09:12.375Z,9.65
2022-08-21T13:10:15.055Z,8.88
2022-08-21T13:11:18.016Z,8.74
2022-08-21T13:12:22.527Z,8.13
2022-08-21T13:13:37.592Z,8.58
2022-08-21T13:14:45.935Z,9.24
2022-08-21T13:15:47.889Z,7.37
2022-08-21T13:16:51.039Z,7.83
2022-08-21T13:17:55.237Z,8.67
2022-08-21T13:18:58.009Z,8.50
2022-08-21T13:20:00.789Z,8.05
2022-08-21T13:21:03.470Z,8.95
2022-08-21T13:22:33.586Z,10.62
2022-08-21T13:23:10.436Z,11.32
2022-08-21T13:24:38.638Z,13.55
2022-08-21T13:25:17.407Z,7.89
2022-08-21T13:26:20.279Z,9.97
2022-08-21T13:27:23.153Z,9.88
2022-08-21T13:28:26.133Z,9.42
2022-08-21T13:29:28.906Z,7.32
2022-08-21T13:30:34.647Z,7.97
2022-08-21T13:31:40.182Z,10.43
2022-08-21T13:32:43.063Z,10.63
2022-08-21T13:35:04.476Z,10.14
2022-08-21T13:36:07.248Z,11.22
2022-08-21T13:37:09.912Z,9.48
2022-08-21T13:38:12.582Z,7.46
2022-08-21T13:39:15.464Z,9.00
2022-08-21T13:40:18.424Z,8.44
2022-08-21T13:41:21.313Z,11.19
2022-08-21T13:42:24.187Z,8.22
2022-08-21T13:43:27.164Z,8.64
2022-08-21T13:44:30.037Z,9.83
2022-08-21T13:45:36.087Z,10.12
2022-08-21T13:46:41.727Z,11.36
2022-08-21T13:47:44.602Z,11.49
2022-08-21T13:48:47.477Z,11.90
2022-08-21T13:49:50.142Z,9.24
2022-08-21T13:50:55.682Z,11.08
2022-08-21T13:52:01.322Z,9.45
2022-08-21T13:53:07.272Z,10.13
2022-08-21T13:54:10.039Z,10.72
2022-08-21T13:55:12.814Z,11.16
2022-08-21T13:56:21.738Z,10.30
2022-08-21T13:57:25.013Z,11.57
2022-08-21T13:58:28.195Z,10.27
2022-08-21T13:59:31.068Z,11.43
2022-08-21T14:00:36.611Z,11.13
2022-08-21T14:01:39.307Z,13.43
2022-08-21T14:02:42.415Z,12.45